Terminal Aerodrome Forecast
Issued by NWS

Home | Current Version | Previous Version | Text Only | Print | Product List | Glossary On
Versions: 1 2 3 4 5 6 7 8 9 10 11 12 13 14 15 16 17
000
FTUS43 KAPX 011134
TAFTVC
TAF
KTVC 011134Z 0112/0212 20005KT 6SM -SHSN SCT025 BKN035
      WS020/21025KT
      TEMPO 0112/0114 2SM -SHSN BKN022
     FM011400 23010KT P6SM SCT028 OVC035
     FM020200 28010G18KT P6SM VCSH BKN025 OVC040
     FM021000 29008G16KT P6SM SCT035=

USA.gov is the U.S. government's official web portal to all federal, state and local government web resources and services.